Terminal Aerodrome Forecast
Issued by NWS

Home | Current Version | Previous Version | Text Only | Print | Product List | Glossary On
Versions: 1 2 3 4 5 6 7 8 9 10 11 12 13 14 15 16 17 18
000
FTUS44 KLZK 220639 AAA
TAFHRO
TAF AMD
KHRO 220639Z 2207/2306 29010G20KT 5SM TSRA BR BKN020 OVC040CB
      WS020/20045KT
      TEMPO 2207/2210 VRB25G40KT 1SM +TSRA BKN015CB OVC040
     FM221100 32009G16KT P6SM -SHRA OVC015
     FM221800 32010G18KT P6SM VCSH SCT030 BKN060=

USA.gov is the U.S. government's official web portal to all federal, state and local government web resources and services.